sensor_id;sensor_type;location;lat;lon;timestamp;P1;durP1;ratioP1;P2;durP2;ratioP2
27402;SDS011;14862;49.494;8.530;2023-05-15T00:01:53;5.43;;;4.43;;
27402;SDS011;14862;49.494;8.530;2023-05-15T00:04:19;6.80;;;4.80;;
27402;SDS011;14862;49.494;8.530;2023-05-15T00:06:44;4.32;;;3.92;;
27402;SDS011;14862;49.494;8.530;2023-05-15T00:09:09;5.60;;;3.92;;
27402;SDS011;14862;49.494;8.530;2023-05-15T00:11:35;5.65;;;4.88;;
27402;SDS011;14862;49.494;8.530;2023-05-15T00:14:00;7.20;;;4.97;;
27402;SDS011;14862;49.494;8.530;2023-05-15T00:16:25;7.20;;;5.37;;
27402;SDS011;14862;49.494;8.530;2023-05-15T00:18:50;5.35;;;4.82;;
27402;SDS011;14862;49.494;8.530;2023-05-15T00:21:15;5.65;;;4.68;;
27402;SDS011;14862;49.494;8.530;2023-05-15T00:23:41;7.97;;;5.05;;
27402;SDS011;14862;49.494;8.530;2023-05-15T00:26:06;6.28;;;4.90;;
27402;SDS011;14862;49.494;8.530;2023-05-15T00:28:31;5.43;;;4.72;;
27402;SDS011;14862;49.494;8.530;2023-05-15T00:30:56;6.18;;;4.90;;
27402;SDS011;14862;49.494;8.530;2023-05-15T00:33:22;5.38;;;4.80;;
27402;SDS011;14862;49.494;8.530;2023-05-15T00:35:47;5.35;;;4.82;;
27402;SDS011;14862;49.494;8.530;2023-05-15T00:38:12;5.22;;;4.70;;
27402;SDS011;14862;49.494;8.530;2023-05-15T00:40:37;4.90;;;4.22;;
27402;SDS011;14862;49.494;8.530;2023-05-15T00:43:03;5.65;;;5.05;;
27402;SDS011;14862;49.494;8.530;2023-05-15T00:45:29;8.30;;;5.60;;
27402;SDS011;14862;49.494;8.530;2023-05-15T00:47:54;5.47;;;4.97;;
27402;SDS011;14862;49.494;8.530;2023-05-15T00:50:20;6.90;;;5.03;;
27402;SDS011;14862;49.494;8.530;2023-05-15T00:52:46;5.78;;;5.20;;
27402;SDS011;14862;49.494;8.530;2023-05-15T00:55:11;5.38;;;4.88;;
27402;SDS011;14862;49.494;8.530;2023-05-15T00:57:36;8.37;;;5.50;;
27402;SDS011;14862;49.494;8.530;2023-05-15T01:00:02;5.85;;;4.95;;
27402;SDS011;14862;49.494;8.530;2023-05-15T01:02:31;6.78;;;5.10;;
27402;SDS011;14862;49.494;8.530;2023-05-15T01:04:56;15.70;;;5.90;;
27402;SDS011;14862;49.494;8.530;2023-05-15T01:07:21;6.63;;;5.38;;
27402;SDS011;14862;49.494;8.530;2023-05-15T01:09:46;7.70;;;5.55;;
27402;SDS011;14862;49.494;8.530;2023-05-15T01:12:13;8.40;;;5.82;;
27402;SDS011;14862;49.494;8.530;2023-05-15T01:14:40;5.78;;;5.00;;
27402;SDS011;14862;49.494;8.530;2023-05-15T01:17:05;8.13;;;5.70;;
27402;SDS011;14862;49.494;8.530;2023-05-15T01:19:31;5.88;;;5.20;;
27402;SDS011;14862;49.494;8.530;2023-05-15T01:27:07;6.00;;;5.43;;
27402;SDS011;14862;49.494;8.530;2023-05-15T01:32:11;7.35;;;5.93;;
27402;SDS011;14862;49.494;8.530;2023-05-15T01:34:41;8.90;;;6.30;;
27402;SDS011;14862;49.494;8.530;2023-05-15T01:37:07;8.93;;;5.88;;
27402;SDS011;14862;49.494;8.530;2023-05-15T01:39:35;6.38;;;5.40;;
27402;SDS011;14862;49.494;8.530;2023-05-15T01:42:04;6.05;;;5.45;;
27402;SDS011;14862;49.494;8.530;2023-05-15T01:44:31;6.70;;;5.93;;
27402;SDS011;14862;49.494;8.530;2023-05-15T01:46:58;6.50;;;5.90;;
27402;SDS011;14862;49.494;8.530;2023-05-15T01:49:27;7.72;;;6.25;;
27402;SDS011;14862;49.494;8.530;2023-05-15T01:51:56;7.28;;;6.35;;
27402;SDS011;14862;49.494;8.530;2023-05-15T01:54:23;8.20;;;6.28;;
27402;SDS011;14862;49.494;8.530;2023-05-15T01:56:48;9.18;;;6.13;;
27402;SDS011;14862;49.494;8.530;2023-05-15T01:59:14;6.22;;;5.63;;
27402;SDS011;14862;49.494;8.530;2023-05-15T02:01:40;8.80;;;6.55;;
27402;SDS011;14862;49.494;8.530;2023-05-15T02:04:05;8.25;;;6.25;;
27402;SDS011;14862;49.494;8.530;2023-05-15T02:06:32;8.30;;;6.50;;
27402;SDS011;14862;49.494;8.530;2023-05-15T02:08:58;7.95;;;6.53;;
27402;SDS011;14862;49.494;8.530;2023-05-15T02:11:24;9.32;;;6.70;;
27402;SDS011;14862;49.494;8.530;2023-05-15T02:13:49;7.13;;;6.30;;
27402;SDS011;14862;49.494;8.530;2023-05-15T02:16:15;9.85;;;7.00;;
27402;SDS011;14862;49.494;8.530;2023-05-15T02:18:41;9.25;;;7.45;;
27402;SDS011;14862;49.494;8.530;2023-05-15T02:21:06;8.85;;;7.00;;
27402;SDS011;14862;49.494;8.530;2023-05-15T02:23:32;11.52;;;7.60;;
27402;SDS011;14862;49.494;8.530;2023-05-15T02:29:03;8.82;;;7.07;;
27402;SDS011;14862;49.494;8.530;2023-05-15T02:31:26;7.68;;;6.78;;
27402;SDS011;14862;49.494;8.530;2023-05-15T02:36:19;10.02;;;6.68;;
27402;SDS011;14862;49.494;8.530;2023-05-15T02:38:47;7.25;;;6.55;;
27402;SDS011;14862;49.494;8.530;2023-05-15T02:41:13;8.48;;;6.85;;
27402;SDS011;14862;49.494;8.530;2023-05-15T02:43:39;8.55;;;6.10;;
27402;SDS011;14862;49.494;8.530;2023-05-15T02:46:04;8.75;;;7.13;;
27402;SDS011;14862;49.494;8.530;2023-05-15T02:48:31;9.27;;;7.22;;
27402;SDS011;14862;49.494;8.530;2023-05-15T02:50:57;9.48;;;7.22;;
27402;SDS011;14862;49.494;8.530;2023-05-15T02:53:22;9.30;;;8.02;;
27402;SDS011;14862;49.494;8.530;2023-05-15T02:55:47;9.87;;;7.37;;
27402;SDS011;14862;49.494;8.530;2023-05-15T02:58:12;8.87;;;7.17;;
27402;SDS011;14862;49.494;8.530;2023-05-15T03:00:38;8.57;;;7.38;;
27402;SDS011;14862;49.494;8.530;2023-05-15T03:03:03;9.23;;;7.07;;
27402;SDS011;14862;49.494;8.530;2023-05-15T03:05:28;7.03;;;6.32;;
27402;SDS011;14862;49.494;8.530;2023-05-15T03:07:53;11.10;;;6.60;;
27402;SDS011;14862;49.494;8.530;2023-05-15T03:10:19;9.50;;;7.93;;
27402;SDS011;14862;49.494;8.530;2023-05-15T03:12:47;8.07;;;7.03;;
27402;SDS011;14862;49.494;8.530;2023-05-15T03:15:12;7.77;;;6.93;;
27402;SDS011;14862;49.494;8.530;2023-05-15T03:17:38;9.13;;;7.22;;
27402;SDS011;14862;49.494;8.530;2023-05-15T03:20:03;9.80;;;7.63;;
27402;SDS011;14862;49.494;8.530;2023-05-15T03:22:28;7.57;;;6.72;;
27402;SDS011;14862;49.494;8.530;2023-05-15T03:24:54;8.50;;;7.55;;
27402;SDS011;14862;49.494;8.530;2023-05-15T03:27:20;9.15;;;7.30;;
27402;SDS011;14862;49.494;8.530;2023-05-15T03:29:45;10.13;;;8.20;;
27402;SDS011;14862;49.494;8.530;2023-05-15T03:32:10;10.23;;;8.00;;
27402;SDS011;14862;49.494;8.530;2023-05-15T03:34:35;10.02;;;7.30;;
27402;SDS011;14862;49.494;8.530;2023-05-15T03:37:01;8.32;;;7.07;;
27402;SDS011;14862;49.494;8.530;2023-05-15T03:39:26;9.98;;;6.90;;
27402;SDS011;14862;49.494;8.530;2023-05-15T03:41:51;10.20;;;7.63;;
27402;SDS011;14862;49.494;8.530;2023-05-15T03:44:17;12.05;;;7.57;;
27402;SDS011;14862;49.494;8.530;2023-05-15T03:46:42;10.37;;;7.97;;
27402;SDS011;14862;49.494;8.530;2023-05-15T03:49:07;8.23;;;7.33;;
27402;SDS011;14862;49.494;8.530;2023-05-15T03:51:32;13.70;;;7.67;;
27402;SDS011;14862;49.494;8.530;2023-05-15T03:53:57;8.73;;;7.40;;
27402;SDS011;14862;49.494;8.530;2023-05-15T03:56:23;8.32;;;6.60;;
27402;SDS011;14862;49.494;8.530;2023-05-15T03:58:48;9.13;;;6.93;;
27402;SDS011;14862;49.494;8.530;2023-05-15T04:01:13;9.32;;;7.43;;
27402;SDS011;14862;49.494;8.530;2023-05-15T04:03:38;7.85;;;6.57;;
27402;SDS011;14862;49.494;8.530;2023-05-15T04:06:04;7.70;;;5.80;;
27402;SDS011;14862;49.494;8.530;2023-05-15T04:08:29;9.70;;;6.70;;
27402;SDS011;14862;49.494;8.530;2023-05-15T04:10:54;5.85;;;5.10;;
27402;SDS011;14862;49.494;8.530;2023-05-15T04:13:19;9.07;;;4.90;;
27402;SDS011;14862;49.494;8.530;2023-05-15T04:15:45;5.65;;;4.55;;
27402;SDS011;14862;49.494;8.530;2023-05-15T04:18:10;5.45;;;4.95;;
27402;SDS011;14862;49.494;8.530;2023-05-15T04:20:35;6.75;;;4.50;;
27402;SDS011;14862;49.494;8.530;2023-05-15T04:23:01;8.05;;;4.82;;
27402;SDS011;14862;49.494;8.530;2023-05-15T04:25:27;9.32;;;4.82;;
27402;SDS011;14862;49.494;8.530;2023-05-15T04:27:53;6.22;;;4.90;;
27402;SDS011;14862;49.494;8.530;2023-05-15T04:30:18;5.57;;;5.07;;
27402;SDS011;14862;49.494;8.530;2023-05-15T04:32:43;10.38;;;7.25;;
27402;SDS011;14862;49.494;8.530;2023-05-15T04:35:09;8.97;;;6.10;;
27402;SDS011;14862;49.494;8.530;2023-05-15T04:37:39;8.52;;;6.80;;
27402;SDS011;14862;49.494;8.530;2023-05-15T04:40:05;9.73;;;7.43;;
27402;SDS011;14862;49.494;8.530;2023-05-15T04:42:32;10.52;;;7.85;;
27402;SDS011;14862;49.494;8.530;2023-05-15T04:44:57;9.82;;;7.40;;
27402;SDS011;14862;49.494;8.530;2023-05-15T04:47:22;9.00;;;6.68;;
27402;SDS011;14862;49.494;8.530;2023-05-15T04:49:47;8.57;;;6.78;;
27402;SDS011;14862;49.494;8.530;2023-05-15T04:52:14;7.97;;;6.88;;
27402;SDS011;14862;49.494;8.530;2023-05-15T04:54:39;7.67;;;6.87;;
27402;SDS011;14862;49.494;8.530;2023-05-15T04:57:04;10.03;;;6.43;;
27402;SDS011;14862;49.494;8.530;2023-05-15T04:59:30;10.20;;;6.22;;
27402;SDS011;14862;49.494;8.530;2023-05-15T05:01:55;7.13;;;5.23;;
27402;SDS011;14862;49.494;8.530;2023-05-15T05:04:21;6.55;;;5.90;;
27402;SDS011;14862;49.494;8.530;2023-05-15T05:06:47;6.88;;;5.30;;
27402;SDS011;14862;49.494;8.530;2023-05-15T05:09:12;6.18;;;5.55;;
27402;SDS011;14862;49.494;8.530;2023-05-15T05:11:38;6.83;;;4.97;;
27402;SDS011;14862;49.494;8.530;2023-05-15T05:14:03;5.97;;;4.28;;
27402;SDS011;14862;49.494;8.530;2023-05-15T05:16:28;7.28;;;4.90;;
27402;SDS011;14862;49.494;8.530;2023-05-15T05:18:54;5.38;;;4.28;;
27402;SDS011;14862;49.494;8.530;2023-05-15T05:21:19;4.43;;;4.03;;
27402;SDS011;14862;49.494;8.530;2023-05-15T05:23:44;6.10;;;3.78;;
27402;SDS011;14862;49.494;8.530;2023-05-15T05:26:11;5.57;;;3.78;;
27402;SDS011;14862;49.494;8.530;2023-05-15T05:28:36;5.43;;;3.85;;
27402;SDS011;14862;49.494;8.530;2023-05-15T05:31:01;4.32;;;3.38;;
27402;SDS011;14862;49.494;8.530;2023-05-15T05:33:27;5.57;;;3.53;;
27402;SDS011;14862;49.494;8.530;2023-05-15T05:35:52;5.13;;;3.30;;
27402;SDS011;14862;49.494;8.530;2023-05-15T05:38:17;8.65;;;3.58;;
27402;SDS011;14862;49.494;8.530;2023-05-15T05:40:42;3.27;;;2.97;;
27402;SDS011;14862;49.494;8.530;2023-05-15T05:43:08;3.63;;;3.33;;
27402;SDS011;14862;49.494;8.530;2023-05-15T05:45:33;3.33;;;3.03;;
27402;SDS011;14862;49.494;8.530;2023-05-15T05:47:58;6.80;;;3.20;;
27402;SDS011;14862;49.494;8.530;2023-05-15T05:50:23;3.45;;;3.15;;
27402;SDS011;14862;49.494;8.530;2023-05-15T05:52:49;3.33;;;3.03;;
27402;SDS011;14862;49.494;8.530;2023-05-15T05:55:14;4.55;;;2.90;;
27402;SDS011;14862;49.494;8.530;2023-05-15T05:57:40;3.05;;;2.85;;
27402;SDS011;14862;49.494;8.530;2023-05-15T06:00:05;4.28;;;2.92;;
27402;SDS011;14862;49.494;8.530;2023-05-15T06:02:34;4.22;;;3.33;;
27402;SDS011;14862;49.494;8.530;2023-05-15T06:05:01;3.63;;;3.33;;
27402;SDS011;14862;49.494;8.530;2023-05-15T06:07:26;5.43;;;4.17;;
27402;SDS011;14862;49.494;8.530;2023-05-15T06:09:52;4.07;;;3.63;;
27402;SDS011;14862;49.494;8.530;2023-05-15T06:12:17;5.20;;;4.40;;
27402;SDS011;14862;49.494;8.530;2023-05-15T06:14:43;5.20;;;3.78;;
27402;SDS011;14862;49.494;8.530;2023-05-15T06:17:08;4.95;;;4.10;;
27402;SDS011;14862;49.494;8.530;2023-05-15T06:19:33;5.30;;;3.67;;
27402;SDS011;14862;49.494;8.530;2023-05-15T06:21:59;7.93;;;5.60;;
27402;SDS011;14862;49.494;8.530;2023-05-15T06:24:24;7.82;;;4.22;;
27402;SDS011;14862;49.494;8.530;2023-05-15T06:26:49;3.75;;;3.45;;
27402;SDS011;14862;49.494;8.530;2023-05-15T06:29:14;5.95;;;3.63;;
27402;SDS011;14862;49.494;8.530;2023-05-15T06:31:40;4.63;;;3.17;;
27402;SDS011;14862;49.494;8.530;2023-05-15T06:34:05;3.95;;;3.00;;
27402;SDS011;14862;49.494;8.530;2023-05-15T06:36:30;3.38;;;2.92;;
27402;SDS011;14862;49.494;8.530;2023-05-15T06:38:55;3.80;;;3.50;;
27402;SDS011;14862;49.494;8.530;2023-05-15T06:41:21;7.13;;;2.80;;
27402;SDS011;14862;49.494;8.530;2023-05-15T06:43:46;5.57;;;3.40;;
27402;SDS011;14862;49.494;8.530;2023-05-15T06:46:11;5.63;;;3.27;;
27402;SDS011;14862;49.494;8.530;2023-05-15T06:48:40;3.83;;;3.13;;
27402;SDS011;14862;49.494;8.530;2023-05-15T06:51:05;4.55;;;3.60;;
27402;SDS011;14862;49.494;8.530;2023-05-15T06:53:30;3.97;;;3.20;;
27402;SDS011;14862;49.494;8.530;2023-05-15T06:55:55;5.95;;;3.30;;
27402;SDS011;14862;49.494;8.530;2023-05-15T06:58:21;4.10;;;3.13;;
27402;SDS011;14862;49.494;8.530;2023-05-15T07:00:46;3.40;;;3.10;;
27402;SDS011;14862;49.494;8.530;2023-05-15T07:03:11;3.70;;;3.40;;
27402;SDS011;14862;49.494;8.530;2023-05-15T07:05:38;4.10;;;3.45;;
27402;SDS011;14862;49.494;8.530;2023-05-15T07:08:03;4.53;;;3.28;;
27402;SDS011;14862;49.494;8.530;2023-05-15T07:10:29;3.75;;;3.45;;
27402;SDS011;14862;49.494;8.530;2023-05-15T07:12:54;5.50;;;3.72;;
27402;SDS011;14862;49.494;8.530;2023-05-15T07:15:19;4.65;;;4.15;;
27402;SDS011;14862;49.494;8.530;2023-05-15T07:17:45;4.93;;;3.42;;
27402;SDS011;14862;49.494;8.530;2023-05-15T07:20:10;4.90;;;4.40;;
27402;SDS011;14862;49.494;8.530;2023-05-15T07:22:35;4.03;;;3.58;;
27402;SDS011;14862;49.494;8.530;2023-05-15T07:25:00;5.18;;;3.75;;
27402;SDS011;14862;49.494;8.530;2023-05-15T07:27:26;4.40;;;3.78;;
27402;SDS011;14862;49.494;8.530;2023-05-15T07:29:52;5.03;;;3.60;;
27402;SDS011;14862;49.494;8.530;2023-05-15T07:32:17;4.63;;;4.00;;
27402;SDS011;14862;49.494;8.530;2023-05-15T07:34:42;4.93;;;3.70;;
27402;SDS011;14862;49.494;8.530;2023-05-15T07:37:07;4.45;;;3.85;;
27402;SDS011;14862;49.494;8.530;2023-05-15T07:39:33;9.45;;;3.80;;
27402;SDS011;14862;49.494;8.530;2023-05-15T07:41:59;3.37;;;3.07;;
27402;SDS011;14862;49.494;8.530;2023-05-15T07:44:24;5.00;;;3.85;;
27402;SDS011;14862;49.494;8.530;2023-05-15T07:46:50;6.28;;;3.58;;
27402;SDS011;14862;49.494;8.530;2023-05-15T07:49:15;4.55;;;3.05;;
27402;SDS011;14862;49.494;8.530;2023-05-15T07:51:40;4.85;;;4.05;;
27402;SDS011;14862;49.494;8.530;2023-05-15T07:54:06;4.85;;;3.97;;
27402;SDS011;14862;49.494;8.530;2023-05-15T07:56:31;5.97;;;3.47;;
27402;SDS011;14862;49.494;8.530;2023-05-15T07:58:57;6.13;;;2.92;;
27402;SDS011;14862;49.494;8.530;2023-05-15T08:01:22;3.42;;;2.95;;
27402;SDS011;14862;49.494;8.530;2023-05-15T08:03:47;4.43;;;3.03;;
27402;SDS011;14862;49.494;8.530;2023-05-15T08:06:13;8.30;;;3.35;;
27402;SDS011;14862;49.494;8.530;2023-05-15T08:08:38;6.05;;;2.97;;
27402;SDS011;14862;49.494;8.530;2023-05-15T08:11:03;2.30;;;2.10;;
27402;SDS011;14862;49.494;8.530;2023-05-15T08:13:28;5.53;;;2.78;;
27402;SDS011;14862;49.494;8.530;2023-05-15T08:15:54;3.70;;;2.75;;
27402;SDS011;14862;49.494;8.530;2023-05-15T08:18:19;4.05;;;3.03;;
27402;SDS011;14862;49.494;8.530;2023-05-15T08:20:44;3.70;;;2.77;;
27402;SDS011;14862;49.494;8.530;2023-05-15T08:23:10;5.75;;;2.88;;
27402;SDS011;14862;49.494;8.530;2023-05-15T08:25:35;9.23;;;3.83;;
27402;SDS011;14862;49.494;8.530;2023-05-15T08:28:00;4.03;;;3.17;;
27402;SDS011;14862;49.494;8.530;2023-05-15T08:30:25;4.03;;;3.40;;
27402;SDS011;14862;49.494;8.530;2023-05-15T08:32:51;4.95;;;3.70;;
27402;SDS011;14862;49.494;8.530;2023-05-15T08:35:16;5.00;;;3.72;;
27402;SDS011;14862;49.494;8.530;2023-05-15T08:37:42;6.22;;;4.20;;
27402;SDS011;14862;49.494;8.530;2023-05-15T08:40:07;4.93;;;4.03;;
27402;SDS011;14862;49.494;8.530;2023-05-15T08:47:43;4.38;;;3.95;;
27402;SDS011;14862;49.494;8.530;2023-05-15T08:50:09;4.60;;;4.15;;
27402;SDS011;14862;49.494;8.530;2023-05-15T08:52:45;5.10;;;4.13;;
27402;SDS011;14862;49.494;8.530;2023-05-15T08:55:11;5.07;;;3.90;;
27402;SDS011;14862;49.494;8.530;2023-05-15T08:57:37;5.43;;;4.63;;
27402;SDS011;14862;49.494;8.530;2023-05-15T09:00:03;5.18;;;4.70;;
27402;SDS011;14862;49.494;8.530;2023-05-15T09:02:34;5.55;;;4.78;;
27402;SDS011;14862;49.494;8.530;2023-05-15T09:04:59;5.93;;;5.32;;
27402;SDS011;14862;49.494;8.530;2023-05-15T09:07:24;7.00;;;5.70;;
27402;SDS011;14862;49.494;8.530;2023-05-15T09:09:50;9.10;;;5.88;;
27402;SDS011;14862;49.494;8.530;2023-05-15T09:12:15;6.38;;;5.70;;
27402;SDS011;14862;49.494;8.530;2023-05-15T09:14:43;7.88;;;6.45;;
27402;SDS011;14862;49.494;8.530;2023-05-15T09:17:09;8.80;;;6.50;;
27402;SDS011;14862;49.494;8.530;2023-05-15T09:19:35;10.05;;;6.32;;
27402;SDS011;14862;49.494;8.530;2023-05-15T09:22:18;7.35;;;5.78;;
27402;SDS011;14862;49.494;8.530;2023-05-15T09:24:47;9.05;;;7.22;;
27402;SDS011;14862;49.494;8.530;2023-05-15T09:27:13;8.65;;;7.60;;
27402;SDS011;14862;49.494;8.530;2023-05-15T09:29:38;10.20;;;7.20;;
27402;SDS011;14862;49.494;8.530;2023-05-15T09:32:07;8.55;;;7.75;;
27402;SDS011;14862;49.494;8.530;2023-05-15T09:34:34;7.82;;;7.07;;
27402;SDS011;14862;49.494;8.530;2023-05-15T09:37:00;10.18;;;8.75;;
27402;SDS011;14862;49.494;8.530;2023-05-15T09:39:26;9.48;;;8.57;;
27402;SDS011;14862;49.494;8.530;2023-05-15T09:41:51;13.20;;;9.13;;
27402;SDS011;14862;49.494;8.530;2023-05-15T09:44:18;11.10;;;9.02;;
27402;SDS011;14862;49.494;8.530;2023-05-15T09:46:44;9.57;;;7.20;;
27402;SDS011;14862;49.494;8.530;2023-05-15T09:49:09;8.60;;;7.43;;
27402;SDS011;14862;49.494;8.530;2023-05-15T09:51:35;11.00;;;8.80;;
27402;SDS011;14862;49.494;8.530;2023-05-15T09:54:01;13.40;;;10.23;;
27402;SDS011;14862;49.494;8.530;2023-05-15T09:56:26;16.08;;;11.40;;
27402;SDS011;14862;49.494;8.530;2023-05-15T09:58:52;14.23;;;12.80;;
27402;SDS011;14862;49.494;8.530;2023-05-15T10:01:18;16.77;;;13.50;;
27402;SDS011;14862;49.494;8.530;2023-05-15T10:03:44;13.55;;;12.15;;
27402;SDS011;14862;49.494;8.530;2023-05-15T10:06:09;21.37;;;16.00;;
27402;SDS011;14862;49.494;8.530;2023-05-15T10:08:41;18.92;;;14.45;;
27402;SDS011;14862;49.494;8.530;2023-05-15T10:11:06;18.88;;;15.48;;
27402;SDS011;14862;49.494;8.530;2023-05-15T10:13:32;21.45;;;15.15;;
27402;SDS011;14862;49.494;8.530;2023-05-15T10:15:58;17.08;;;13.93;;
27402;SDS011;14862;49.494;8.530;2023-05-15T10:18:23;25.50;;;17.15;;
27402;SDS011;14862;49.494;8.530;2023-05-15T10:20:51;19.40;;;13.85;;
27402;SDS011;14862;49.494;8.530;2023-05-15T10:23:17;23.33;;;16.58;;
27402;SDS011;14862;49.494;8.530;2023-05-15T10:25:44;17.58;;;12.52;;
27402;SDS011;14862;49.494;8.530;2023-05-15T10:28:14;18.15;;;13.45;;
27402;SDS011;14862;49.494;8.530;2023-05-15T10:30:39;15.32;;;11.68;;
27402;SDS011;14862;49.494;8.530;2023-05-15T10:33:06;17.30;;;12.60;;
27402;SDS011;14862;49.494;8.530;2023-05-15T10:35:32;17.17;;;11.60;;
27402;SDS011;14862;49.494;8.530;2023-05-15T10:37:58;17.95;;;12.10;;
27402;SDS011;14862;49.494;8.530;2023-05-15T10:40:23;15.50;;;11.15;;
27402;SDS011;14862;49.494;8.530;2023-05-15T10:42:49;13.85;;;10.15;;
27402;SDS011;14862;49.494;8.530;2023-05-15T10:45:14;14.95;;;11.18;;
27402;SDS011;14862;49.494;8.530;2023-05-15T10:47:40;15.65;;;9.07;;
27402;SDS011;14862;49.494;8.530;2023-05-15T10:50:06;10.88;;;8.85;;
27402;SDS011;14862;49.494;8.530;2023-05-15T10:52:32;13.27;;;10.30;;
27402;SDS011;14862;49.494;8.530;2023-05-15T10:54:57;11.10;;;9.70;;
27402;SDS011;14862;49.494;8.530;2023-05-15T10:57:23;10.63;;;8.55;;
27402;SDS011;14862;49.494;8.530;2023-05-15T10:59:48;11.10;;;9.13;;
27402;SDS011;14862;49.494;8.530;2023-05-15T11:04:45;12.65;;;7.88;;
27402;SDS011;14862;49.494;8.530;2023-05-15T11:07:11;11.25;;;7.22;;
27402;SDS011;14862;49.494;8.530;2023-05-15T11:09:37;5.80;;;4.70;;
27402;SDS011;14862;49.494;8.530;2023-05-15T11:12:03;8.07;;;6.90;;
27402;SDS011;14862;49.494;8.530;2023-05-15T11:21:59;9.40;;;7.55;;
27402;SDS011;14862;49.494;8.530;2023-05-15T11:24:31;9.75;;;7.55;;
27402;SDS011;14862;49.494;8.530;2023-05-15T11:27:03;9.63;;;7.25;;
27402;SDS011;14862;49.494;8.530;2023-05-15T11:29:29;8.80;;;6.63;;
27402;SDS011;14862;49.494;8.530;2023-05-15T11:31:55;9.73;;;6.18;;
27402;SDS011;14862;49.494;8.530;2023-05-15T11:34:33;10.23;;;6.13;;
27402;SDS011;14862;49.494;8.530;2023-05-15T11:36:58;7.38;;;6.20;;
27402;SDS011;14862;49.494;8.530;2023-05-15T11:39:26;9.40;;;6.18;;
27402;SDS011;14862;49.494;8.530;2023-05-15T11:41:55;8.15;;;5.13;;
27402;SDS011;14862;49.494;8.530;2023-05-15T11:44:23;11.13;;;5.10;;
27402;SDS011;14862;49.494;8.530;2023-05-15T11:46:49;7.22;;;4.80;;
27402;SDS011;14862;49.494;8.530;2023-05-15T11:49:17;8.93;;;4.25;;
27402;SDS011;14862;49.494;8.530;2023-05-15T11:51:42;4.68;;;4.18;;
27402;SDS011;14862;49.494;8.530;2023-05-15T11:54:08;9.00;;;4.28;;
27402;SDS011;14862;49.494;8.530;2023-05-15T11:56:35;6.43;;;4.72;;
27402;SDS011;14862;49.494;8.530;2023-05-15T11:59:05;10.10;;;6.35;;
27402;SDS011;14862;49.494;8.530;2023-05-15T12:01:40;10.48;;;6.72;;
27402;SDS011;14862;49.494;8.530;2023-05-15T12:04:12;10.73;;;5.35;;
27402;SDS011;14862;49.494;8.530;2023-05-15T12:06:38;6.70;;;5.30;;
27402;SDS011;14862;49.494;8.530;2023-05-15T12:09:04;5.93;;;5.05;;
27402;SDS011;14862;49.494;8.530;2023-05-15T12:11:29;7.75;;;5.07;;
27402;SDS011;14862;49.494;8.530;2023-05-15T12:13:55;8.93;;;5.00;;
27402;SDS011;14862;49.494;8.530;2023-05-15T12:16:24;10.98;;;5.30;;
27402;SDS011;14862;49.494;8.530;2023-05-15T12:18:49;8.35;;;6.97;;
27402;SDS011;14862;49.494;8.530;2023-05-15T12:21:15;6.90;;;5.68;;
27402;SDS011;14862;49.494;8.530;2023-05-15T12:23:41;6.00;;;5.30;;
27402;SDS011;14862;49.494;8.530;2023-05-15T12:26:13;7.32;;;5.07;;
27402;SDS011;14862;49.494;8.530;2023-05-15T12:28:38;6.47;;;4.53;;
27402;SDS011;14862;49.494;8.530;2023-05-15T12:31:04;7.43;;;4.43;;
27402;SDS011;14862;49.494;8.530;2023-05-15T12:33:29;7.82;;;4.93;;
27402;SDS011;14862;49.494;8.530;2023-05-15T12:35:55;12.25;;;6.40;;
27402;SDS011;14862;49.494;8.530;2023-05-15T12:38:21;8.27;;;5.43;;
27402;SDS011;14862;49.494;8.530;2023-05-15T12:40:46;13.32;;;7.95;;
27402;SDS011;14862;49.494;8.530;2023-05-15T12:43:17;9.93;;;7.15;;
27402;SDS011;14862;49.494;8.530;2023-05-15T12:45:42;10.38;;;7.65;;
27402;SDS011;14862;49.494;8.530;2023-05-15T12:48:11;10.33;;;8.20;;
27402;SDS011;14862;49.494;8.530;2023-05-15T12:50:37;10.48;;;6.15;;
27402;SDS011;14862;49.494;8.530;2023-05-15T12:53:03;7.40;;;5.32;;
27402;SDS011;14862;49.494;8.530;2023-05-15T12:55:30;7.80;;;6.15;;
27402;SDS011;14862;49.494;8.530;2023-05-15T12:57:56;6.13;;;5.50;;
27402;SDS011;14862;49.494;8.530;2023-05-15T13:00:22;8.18;;;6.00;;
27402;SDS011;14862;49.494;8.530;2023-05-15T13:02:57;8.82;;;6.47;;
27402;SDS011;14862;49.494;8.530;2023-05-15T13:05:25;11.25;;;6.90;;
27402;SDS011;14862;49.494;8.530;2023-05-15T13:07:51;12.77;;;8.77;;
27402;SDS011;14862;49.494;8.530;2023-05-15T13:10:18;12.45;;;8.27;;
27402;SDS011;14862;49.494;8.530;2023-05-15T13:12:44;15.35;;;9.95;;
27402;SDS011;14862;49.494;8.530;2023-05-15T13:17:50;11.32;;;6.75;;
27402;SDS011;14862;49.494;8.530;2023-05-15T13:20:15;11.00;;;8.68;;
27402;SDS011;14862;49.494;8.530;2023-05-15T13:22:41;13.97;;;10.00;;
27402;SDS011;14862;49.494;8.530;2023-05-15T13:25:07;16.15;;;10.43;;
27402;SDS011;14862;49.494;8.530;2023-05-15T13:27:32;14.02;;;8.88;;
27402;SDS011;14862;49.494;8.530;2023-05-15T13:29:57;12.73;;;9.35;;
27402;SDS011;14862;49.494;8.530;2023-05-15T13:32:23;13.07;;;9.30;;
27402;SDS011;14862;49.494;8.530;2023-05-15T13:34:48;14.13;;;9.27;;
27402;SDS011;14862;49.494;8.530;2023-05-15T13:37:14;10.37;;;7.87;;
27402;SDS011;14862;49.494;8.530;2023-05-15T13:39:39;10.45;;;7.30;;
27402;SDS011;14862;49.494;8.530;2023-05-15T13:42:04;9.50;;;6.30;;
27402;SDS011;14862;49.494;8.530;2023-05-15T13:44:30;11.60;;;6.40;;
27402;SDS011;14862;49.494;8.530;2023-05-15T13:46:56;6.70;;;5.30;;
27402;SDS011;14862;49.494;8.530;2023-05-15T13:49:21;7.70;;;6.15;;
27402;SDS011;14862;49.494;8.530;2023-05-15T13:51:46;5.90;;;4.93;;
27402;SDS011;14862;49.494;8.530;2023-05-15T13:54:11;8.95;;;5.72;;
27402;SDS011;14862;49.494;8.530;2023-05-15T13:56:37;5.70;;;5.10;;
27402;SDS011;14862;49.494;8.530;2023-05-15T13:59:02;7.50;;;5.20;;
27402;SDS011;14862;49.494;8.530;2023-05-15T14:01:27;7.35;;;6.00;;
27402;SDS011;14862;49.494;8.530;2023-05-15T14:03:53;6.13;;;5.32;;
27402;SDS011;14862;49.494;8.530;2023-05-15T14:06:18;7.72;;;5.47;;
27402;SDS011;14862;49.494;8.530;2023-05-15T14:08:43;8.63;;;5.30;;
27402;SDS011;14862;49.494;8.530;2023-05-15T14:11:08;5.60;;;4.83;;
27402;SDS011;14862;49.494;8.530;2023-05-15T14:13:34;7.30;;;5.72;;
27402;SDS011;14862;49.494;8.530;2023-05-15T14:15:59;10.40;;;5.88;;
27402;SDS011;14862;49.494;8.530;2023-05-15T14:18:24;7.50;;;6.20;;
27402;SDS011;14862;49.494;8.530;2023-05-15T14:20:50;8.48;;;5.85;;
27402;SDS011;14862;49.494;8.530;2023-05-15T14:23:16;9.57;;;6.22;;
27402;SDS011;14862;49.494;8.530;2023-05-15T14:25:41;7.90;;;5.90;;
27402;SDS011;14862;49.494;8.530;2023-05-15T14:28:06;8.90;;;6.65;;
27402;SDS011;14862;49.494;8.530;2023-05-15T14:30:32;8.18;;;7.10;;
27402;SDS011;14862;49.494;8.530;2023-05-15T14:32:57;9.10;;;6.85;;
27402;SDS011;14862;49.494;8.530;2023-05-15T14:35:23;9.18;;;7.20;;
27402;SDS011;14862;49.494;8.530;2023-05-15T14:37:48;12.57;;;8.00;;
27402;SDS011;14862;49.494;8.530;2023-05-15T14:40:13;11.45;;;7.05;;
27402;SDS011;14862;49.494;8.530;2023-05-15T14:42:38;9.95;;;6.93;;
27402;SDS011;14862;49.494;8.530;2023-05-15T14:45:04;7.80;;;6.65;;
27402;SDS011;14862;49.494;8.530;2023-05-15T14:47:30;8.80;;;7.32;;
27402;SDS011;14862;49.494;8.530;2023-05-15T14:49:55;10.10;;;7.18;;
27402;SDS011;14862;49.494;8.530;2023-05-15T14:52:20;9.82;;;7.10;;
27402;SDS011;14862;49.494;8.530;2023-05-15T14:54:45;8.87;;;7.07;;
27402;SDS011;14862;49.494;8.530;2023-05-15T14:57:10;9.50;;;7.32;;
27402;SDS011;14862;49.494;8.530;2023-05-15T14:59:36;12.43;;;7.63;;
27402;SDS011;14862;49.494;8.530;2023-05-15T15:02:01;11.27;;;6.20;;
27402;SDS011;14862;49.494;8.530;2023-05-15T15:04:27;12.07;;;5.45;;
27402;SDS011;14862;49.494;8.530;2023-05-15T15:06:54;8.40;;;5.90;;